BEL7WA EBBR-EKCH
Flight info
| Callsign | BEL7WA |
|---|---|
| Flight time | 1h 5m |
| Altitude | 39000 |
| Route | NIK N872 ALS T153 TUDLO |
| Aircraft | A20N/M-DE3FGHIJ1LORVWY/HB1G1 |
Departure
| Time | 2026-05-05 13:03 |
|---|---|
| Airport | Brussels Airport (EBBR) |
Arrival
| Time | 2026-05-05 14:08 |
|---|---|
| Airport | Copenhagen Kastrup Airport (EKCH) |
| Time | Latitude | Longitude | Altitude | Speed | Heading |
|---|---|---|---|---|---|
| 2026-05-05 12:36 | 50.90343 | 4.48372 | 193 ft | 0 kts | 155° |
| 2026-05-05 12:55 | 50.90345 | 4.48370 | 193 ft | 0 kts | 155° |
| 2026-05-05 12:55 | 50.90369 | 4.48348 | 193 ft | 1 kts | 99° |
| 2026-05-05 12:56 | 50.90411 | 4.48366 | 193 ft | 6 kts | 1° |
| 2026-05-05 12:56 | 50.90430 | 4.48367 | 193 ft | 0 kts | 1° |
| 2026-05-05 12:56 | 50.90465 | 4.48410 | 193 ft | 12 kts | 71° |
| 2026-05-05 12:57 | 50.90482 | 4.48512 | 193 ft | 11 kts | 67° |
| 2026-05-05 12:57 | 50.90524 | 4.48652 | 193 ft | 15 kts | 65° |
| 2026-05-05 12:57 | 50.90567 | 4.48800 | 193 ft | 14 kts | 65° |
| 2026-05-05 12:57 | 50.90608 | 4.48942 | 193 ft | 13 kts | 65° |
| 2026-05-05 12:58 | 50.90646 | 4.49076 | 193 ft | 13 kts | 65° |
| 2026-05-05 12:58 | 50.90615 | 4.49161 | 193 ft | 10 kts | 159° |
| 2026-05-05 12:58 | 50.90551 | 4.49205 | 193 ft | 9 kts | 155° |
| 2026-05-05 12:58 | 50.90488 | 4.49249 | 193 ft | 10 kts | 155° |
| 2026-05-05 12:59 | 50.90421 | 4.49298 | 193 ft | 11 kts | 155° |
| 2026-05-05 12:59 | 50.90332 | 4.49380 | 193 ft | 16 kts | 139° |
| 2026-05-05 12:59 | 50.90213 | 4.49375 | 193 ft | 19 kts | 194° |
| 2026-05-05 13:00 | 50.89993 | 4.49362 | 193 ft | 11 kts | 134° |
| 2026-05-05 13:00 | 50.89906 | 4.49369 | 193 ft | 15 kts | 194° |
| 2026-05-05 13:01 | 50.89540 | 4.49187 | 193 ft | 17 kts | 197° |
| 2026-05-05 13:01 | 50.89426 | 4.49132 | 193 ft | 17 kts | 193° |
| 2026-05-05 13:01 | 50.89309 | 4.49084 | 193 ft | 17 kts | 194° |
| 2026-05-05 13:01 | 50.89190 | 4.49036 | 193 ft | 16 kts | 194° |
| 2026-05-05 13:02 | 50.89136 | 4.49047 | 193 ft | 6 kts | 92° |
| 2026-05-05 13:02 | 50.89171 | 4.49202 | 193 ft | 42 kts | 70° |
| 2026-05-05 13:02 | 50.89357 | 4.49998 | 193 ft | 110 kts | 71° |
| 2026-05-05 13:02 | 50.89689 | 4.51449 | 222 ft | 162 kts | 67° |
| 2026-05-05 13:03 | 50.90097 | 4.53158 | 766 ft | 167 kts | 66° |
| 2026-05-05 13:03 | 50.90572 | 4.54774 | 1513 ft | 164 kts | 60° |
| 2026-05-05 13:03 | 50.91198 | 4.56229 | 2198 ft | 166 kts | 36° |
| 2026-05-05 13:03 | 50.92329 | 4.56701 | 2693 ft | 184 kts | 356° |
| 2026-05-05 13:04 | 50.93549 | 4.55826 | 3177 ft | 208 kts | 321° |
| 2026-05-05 13:04 | 50.94598 | 4.54071 | 3623 ft | 231 kts | 316° |
| 2026-05-05 13:04 | 50.95747 | 4.52160 | 4188 ft | 249 kts | 316° |
| 2026-05-05 13:04 | 50.96988 | 4.50135 | 4802 ft | 265 kts | 316° |
| 2026-05-05 13:05 | 50.98286 | 4.48023 | 5645 ft | 271 kts | 316° |
| 2026-05-05 13:05 | 50.99600 | 4.45890 | 6544 ft | 275 kts | 316° |
| 2026-05-05 13:05 | 51.00928 | 4.43735 | 7407 ft | 279 kts | 316° |
| 2026-05-05 13:05 | 51.02288 | 4.41528 | 8256 ft | 284 kts | 316° |
| 2026-05-05 13:06 | 51.03671 | 4.39284 | 9086 ft | 288 kts | 316° |
| 2026-05-05 13:06 | 51.05079 | 4.37001 | 9899 ft | 292 kts | 316° |
| 2026-05-05 13:06 | 51.06494 | 4.34705 | 10559 ft | 301 kts | 315° |
| 2026-05-05 13:06 | 51.07997 | 4.32262 | 10981 ft | 319 kts | 315° |
| 2026-05-05 13:07 | 51.09574 | 4.29694 | 11552 ft | 330 kts | 315° |
| 2026-05-05 13:07 | 51.11188 | 4.27071 | 12322 ft | 334 kts | 316° |
| 2026-05-05 13:07 | 51.12832 | 4.24429 | 13095 ft | 336 kts | 318° |
| 2026-05-05 13:07 | 51.14755 | 4.22395 | 13793 ft | 336 kts | 341° |
| 2026-05-05 13:08 | 51.17036 | 4.21776 | 14551 ft | 334 kts | 4° |
| 2026-05-05 13:08 | 51.19274 | 4.22591 | 15232 ft | 335 kts | 26° |
| 2026-05-05 13:08 | 51.21191 | 4.24677 | 15879 ft | 338 kts | 42° |
| 2026-05-05 13:08 | 51.22983 | 4.27183 | 16484 ft | 345 kts | 42° |
| 2026-05-05 13:09 | 51.24766 | 4.29682 | 17078 ft | 350 kts | 42° |
| 2026-05-05 13:09 | 51.26625 | 4.32278 | 17704 ft | 355 kts | 42° |
| 2026-05-05 13:09 | 51.28487 | 4.34872 | 18319 ft | 359 kts | 42° |
| 2026-05-05 13:09 | 51.30378 | 4.37502 | 18920 ft | 364 kts | 42° |
| 2026-05-05 13:10 | 51.32299 | 4.40172 | 19510 ft | 368 kts | 42° |
| 2026-05-05 13:10 | 51.34226 | 4.42853 | 20093 ft | 372 kts | 42° |
| 2026-05-05 13:10 | 51.36181 | 4.45574 | 20671 ft | 376 kts | 42° |
| 2026-05-05 13:10 | 51.38176 | 4.48352 | 21236 ft | 380 kts | 42° |
| 2026-05-05 13:11 | 51.40183 | 4.51147 | 21779 ft | 384 kts | 42° |
| 2026-05-05 13:11 | 51.42192 | 4.53950 | 22313 ft | 389 kts | 42° |
| 2026-05-05 13:11 | 51.44223 | 4.56786 | 22830 ft | 393 kts | 42° |
| 2026-05-05 13:11 | 51.46281 | 4.59664 | 23351 ft | 397 kts | 42° |
| 2026-05-05 13:12 | 51.48384 | 4.62608 | 23877 ft | 400 kts | 42° |
| 2026-05-05 13:12 | 51.50465 | 4.65528 | 24400 ft | 403 kts | 43° |
| 2026-05-05 13:12 | 51.52574 | 4.68500 | 24893 ft | 407 kts | 43° |
| 2026-05-05 13:12 | 51.54716 | 4.71524 | 25374 ft | 410 kts | 43° |
| 2026-05-05 13:13 | 51.56865 | 4.74559 | 25819 ft | 414 kts | 43° |
| 2026-05-05 13:13 | 51.59027 | 4.77610 | 26248 ft | 418 kts | 43° |
| 2026-05-05 13:13 | 51.61205 | 4.80686 | 26678 ft | 422 kts | 43° |
| 2026-05-05 13:13 | 51.63422 | 4.83821 | 27092 ft | 425 kts | 42° |
| 2026-05-05 13:14 | 51.65664 | 4.86993 | 27486 ft | 429 kts | 42° |
| 2026-05-05 13:14 | 51.67898 | 4.90159 | 27874 ft | 432 kts | 42° |
| 2026-05-05 13:14 | 51.70166 | 4.93376 | 28270 ft | 436 kts | 42° |
| 2026-05-05 13:14 | 51.72419 | 4.96578 | 28630 ft | 439 kts | 42° |
| 2026-05-05 13:15 | 51.74735 | 4.99873 | 29000 ft | 442 kts | 42° |
| 2026-05-05 13:15 | 51.77032 | 5.03145 | 29340 ft | 446 kts | 42° |
| 2026-05-05 13:15 | 51.79373 | 5.06485 | 29686 ft | 449 kts | 42° |
| 2026-05-05 13:15 | 51.81733 | 5.09856 | 30028 ft | 452 kts | 42° |
| 2026-05-05 13:16 | 51.84079 | 5.13213 | 30362 ft | 455 kts | 42° |
| 2026-05-05 13:16 | 51.86444 | 5.16600 | 30703 ft | 458 kts | 42° |
| 2026-05-05 13:16 | 51.88835 | 5.20033 | 31047 ft | 460 kts | 42° |
| 2026-05-05 13:16 | 51.91211 | 5.23448 | 31372 ft | 462 kts | 42° |
| 2026-05-05 13:17 | 51.93619 | 5.26914 | 31667 ft | 465 kts | 42° |
| 2026-05-05 13:17 | 51.96064 | 5.30439 | 31947 ft | 468 kts | 42° |
| 2026-05-05 13:17 | 51.98469 | 5.33910 | 32231 ft | 470 kts | 42° |
| 2026-05-05 13:17 | 52.00927 | 5.37463 | 32597 ft | 470 kts | 42° |
| 2026-05-05 13:18 | 52.03332 | 5.40945 | 32984 ft | 470 kts | 42° |
| 2026-05-05 13:18 | 52.05781 | 5.44497 | 33340 ft | 470 kts | 42° |
| 2026-05-05 13:18 | 52.08218 | 5.48035 | 33666 ft | 470 kts | 41° |
| 2026-05-05 13:18 | 52.10652 | 5.51576 | 33993 ft | 470 kts | 41° |
| 2026-05-05 13:19 | 52.13105 | 5.55133 | 34280 ft | 470 kts | 41° |
| 2026-05-05 13:19 | 52.15543 | 5.58664 | 34557 ft | 471 kts | 41° |
| 2026-05-05 13:19 | 52.17954 | 5.62172 | 34828 ft | 471 kts | 41° |
| 2026-05-05 13:19 | 52.20406 | 5.65748 | 35089 ft | 471 kts | 42° |
| 2026-05-05 13:20 | 52.22836 | 5.69315 | 35278 ft | 471 kts | 42° |
| 2026-05-05 13:20 | 52.25257 | 5.72880 | 35471 ft | 471 kts | 42° |
| 2026-05-05 13:20 | 52.27677 | 5.76449 | 35647 ft | 470 kts | 42° |
| 2026-05-05 13:20 | 52.30102 | 5.80025 | 35787 ft | 470 kts | 42° |
| 2026-05-05 13:21 | 52.32538 | 5.83622 | 35944 ft | 470 kts | 42° |
| 2026-05-05 13:21 | 52.34940 | 5.87172 | 36108 ft | 468 kts | 42° |
| 2026-05-05 13:21 | 52.37366 | 5.90759 | 36265 ft | 468 kts | 42° |
| 2026-05-05 13:21 | 52.39751 | 5.94294 | 36404 ft | 467 kts | 41° |
| 2026-05-05 13:22 | 52.42144 | 5.97846 | 36555 ft | 466 kts | 41° |
| 2026-05-05 13:22 | 52.44568 | 6.01447 | 36761 ft | 465 kts | 42° |
| 2026-05-05 13:22 | 52.46944 | 6.04984 | 36949 ft | 464 kts | 41° |
| 2026-05-05 13:22 | 52.49343 | 6.08559 | 37134 ft | 464 kts | 41° |
| 2026-05-05 13:23 | 52.51698 | 6.12075 | 37306 ft | 464 kts | 41° |
| 2026-05-05 13:23 | 52.54078 | 6.15636 | 37488 ft | 463 kts | 41° |
| 2026-05-05 13:23 | 52.56455 | 6.19196 | 37682 ft | 462 kts | 41° |
| 2026-05-05 13:23 | 52.58823 | 6.22747 | 37861 ft | 461 kts | 41° |
| 2026-05-05 13:24 | 52.61199 | 6.26316 | 38018 ft | 461 kts | 41° |
| 2026-05-05 13:24 | 52.63569 | 6.29879 | 38168 ft | 461 kts | 41° |
| 2026-05-05 13:24 | 52.65911 | 6.33409 | 38319 ft | 460 kts | 41° |
| 2026-05-05 13:24 | 52.68264 | 6.36960 | 38471 ft | 460 kts | 41° |
| 2026-05-05 13:25 | 52.70630 | 6.40534 | 38616 ft | 459 kts | 41° |
| 2026-05-05 13:25 | 52.72987 | 6.44102 | 38740 ft | 459 kts | 41° |
| 2026-05-05 13:25 | 52.75334 | 6.47660 | 38869 ft | 459 kts | 41° |
| 2026-05-05 13:25 | 52.77657 | 6.51186 | 38885 ft | 460 kts | 41° |
| 2026-05-05 13:26 | 52.82366 | 6.58345 | 38898 ft | 459 kts | 41° |
| 2026-05-05 13:26 | 52.86886 | 6.65246 | 38901 ft | 459 kts | 42° |
| 2026-05-05 13:27 | 52.91662 | 6.72588 | 38904 ft | 459 kts | 42° |
| 2026-05-05 13:27 | 52.96312 | 6.79753 | 38903 ft | 458 kts | 42° |
| 2026-05-05 13:28 | 53.00978 | 6.86950 | 38901 ft | 458 kts | 42° |
| 2026-05-05 13:28 | 53.05636 | 6.94150 | 38899 ft | 459 kts | 42° |
| 2026-05-05 13:29 | 53.10223 | 7.01257 | 38902 ft | 460 kts | 42° |
| 2026-05-05 13:29 | 53.14986 | 7.08621 | 38900 ft | 460 kts | 42° |
| 2026-05-05 13:30 | 53.19676 | 7.15907 | 38912 ft | 460 kts | 42° |
| 2026-05-05 13:30 | 53.24311 | 7.23150 | 38902 ft | 460 kts | 42° |
| 2026-05-05 13:31 | 53.28981 | 7.30473 | 38906 ft | 459 kts | 42° |
| 2026-05-05 13:31 | 53.33602 | 7.37749 | 38923 ft | 459 kts | 42° |
| 2026-05-05 13:32 | 53.38248 | 7.45087 | 38917 ft | 460 kts | 42° |
| 2026-05-05 13:32 | 53.42864 | 7.52399 | 38924 ft | 460 kts | 42° |
| 2026-05-05 13:33 | 53.47498 | 7.59764 | 38920 ft | 461 kts | 42° |
| 2026-05-05 13:33 | 53.51964 | 7.66887 | 38925 ft | 460 kts | 43° |
| 2026-05-05 13:34 | 53.56620 | 7.74365 | 38921 ft | 460 kts | 43° |
| 2026-05-05 13:34 | 53.61256 | 7.81820 | 38916 ft | 460 kts | 43° |
| 2026-05-05 13:35 | 53.65859 | 7.89234 | 38920 ft | 460 kts | 43° |
| 2026-05-05 13:35 | 53.70471 | 7.96681 | 38919 ft | 460 kts | 42° |
| 2026-05-05 13:36 | 53.75073 | 8.04135 | 38915 ft | 460 kts | 42° |
| 2026-05-05 13:36 | 53.79684 | 8.11631 | 38929 ft | 460 kts | 42° |
| 2026-05-05 13:37 | 53.84302 | 8.19157 | 38917 ft | 460 kts | 43° |
| 2026-05-05 13:37 | 53.88887 | 8.26653 | 38915 ft | 460 kts | 42° |
| 2026-05-05 13:38 | 53.93472 | 8.34179 | 38921 ft | 461 kts | 42° |
| 2026-05-05 13:38 | 53.98068 | 8.41745 | 38916 ft | 461 kts | 42° |
| 2026-05-05 13:39 | 54.02631 | 8.49278 | 38922 ft | 461 kts | 42° |
| 2026-05-05 13:39 | 54.07209 | 8.56868 | 38915 ft | 460 kts | 42° |
| 2026-05-05 13:40 | 54.11811 | 8.64504 | 38913 ft | 461 kts | 42° |
| 2026-05-05 13:40 | 54.16400 | 8.72131 | 38909 ft | 461 kts | 43° |
| 2026-05-05 13:41 | 54.20963 | 8.79763 | 38908 ft | 461 kts | 43° |
| 2026-05-05 13:41 | 54.25535 | 8.87438 | 38904 ft | 462 kts | 43° |
| 2026-05-05 13:42 | 54.30102 | 8.95133 | 38909 ft | 462 kts | 43° |
| 2026-05-05 13:42 | 54.34629 | 9.02784 | 38912 ft | 461 kts | 43° |
| 2026-05-05 13:43 | 54.39191 | 9.10516 | 38918 ft | 461 kts | 43° |
| 2026-05-05 13:43 | 54.43731 | 9.18235 | 38920 ft | 461 kts | 43° |
| 2026-05-05 13:44 | 54.48246 | 9.25941 | 38912 ft | 461 kts | 43° |
| 2026-05-05 13:44 | 54.50524 | 9.29838 | 38475 ft | 463 kts | 43° |
| 2026-05-05 13:44 | 54.52776 | 9.33699 | 37994 ft | 461 kts | 43° |
| 2026-05-05 13:45 | 54.55034 | 9.37575 | 37503 ft | 458 kts | 43° |
| 2026-05-05 13:45 | 54.57296 | 9.41463 | 37009 ft | 456 kts | 43° |
| 2026-05-05 13:45 | 54.59525 | 9.45302 | 36536 ft | 454 kts | 42° |
| 2026-05-05 13:45 | 54.61740 | 9.49121 | 36159 ft | 452 kts | 42° |
| 2026-05-05 13:46 | 54.63921 | 9.52887 | 35828 ft | 450 kts | 42° |
| 2026-05-05 13:46 | 54.66125 | 9.56701 | 35481 ft | 448 kts | 42° |
| 2026-05-05 13:46 | 54.68314 | 9.60493 | 35086 ft | 447 kts | 42° |
| 2026-05-05 13:46 | 54.70502 | 9.64290 | 34631 ft | 447 kts | 42° |
| 2026-05-05 13:47 | 54.72677 | 9.68076 | 34114 ft | 448 kts | 43° |
| 2026-05-05 13:47 | 54.74867 | 9.71902 | 33598 ft | 448 kts | 43° |
| 2026-05-05 13:47 | 54.77040 | 9.75703 | 33081 ft | 449 kts | 43° |
| 2026-05-05 13:47 | 54.79233 | 9.79539 | 32560 ft | 450 kts | 43° |
| 2026-05-05 13:48 | 54.81424 | 9.83372 | 32042 ft | 451 kts | 43° |
| 2026-05-05 13:48 | 54.83628 | 9.87235 | 31522 ft | 452 kts | 43° |
| 2026-05-05 13:48 | 54.85831 | 9.91101 | 31002 ft | 453 kts | 43° |
| 2026-05-05 13:48 | 54.88051 | 9.95018 | 30466 ft | 455 kts | 45° |
| 2026-05-05 13:49 | 54.90118 | 9.99149 | 29921 ft | 453 kts | 50° |
| 2026-05-05 13:49 | 54.91925 | 10.03542 | 29383 ft | 451 kts | 56° |
| 2026-05-05 13:49 | 54.93550 | 10.08201 | 28839 ft | 447 kts | 58° |
| 2026-05-05 13:49 | 54.95097 | 10.12850 | 28300 ft | 444 kts | 59° |
| 2026-05-05 13:50 | 54.96619 | 10.17463 | 27763 ft | 440 kts | 59° |
| 2026-05-05 13:50 | 54.98116 | 10.21992 | 27233 ft | 437 kts | 58° |
| 2026-05-05 13:50 | 54.99620 | 10.26534 | 26697 ft | 433 kts | 58° |
| 2026-05-05 13:50 | 55.01118 | 10.31050 | 26162 ft | 430 kts | 58° |
| 2026-05-05 13:51 | 55.02611 | 10.35551 | 25625 ft | 428 kts | 58° |
| 2026-05-05 13:51 | 55.04090 | 10.40012 | 25094 ft | 425 kts | 58° |
| 2026-05-05 13:51 | 55.05553 | 10.44430 | 24571 ft | 423 kts | 58° |
| 2026-05-05 13:51 | 55.07023 | 10.48876 | 24045 ft | 420 kts | 58° |
| 2026-05-05 13:52 | 55.08457 | 10.53221 | 23531 ft | 418 kts | 58° |
| 2026-05-05 13:52 | 55.09900 | 10.57599 | 23013 ft | 416 kts | 58° |
| 2026-05-05 13:52 | 55.11351 | 10.61990 | 22496 ft | 414 kts | 58° |
| 2026-05-05 13:52 | 55.12788 | 10.66322 | 21981 ft | 412 kts | 59° |
| 2026-05-05 13:53 | 55.14208 | 10.70631 | 21466 ft | 410 kts | 59° |
| 2026-05-05 13:53 | 55.15620 | 10.74938 | 20953 ft | 408 kts | 59° |
| 2026-05-05 13:53 | 55.17029 | 10.79251 | 20443 ft | 405 kts | 59° |
| 2026-05-05 13:53 | 55.18403 | 10.83467 | 19942 ft | 403 kts | 59° |
| 2026-05-05 13:54 | 55.19778 | 10.87692 | 19439 ft | 401 kts | 59° |
| 2026-05-05 13:54 | 55.21134 | 10.91910 | 18934 ft | 399 kts | 59° |
| 2026-05-05 13:54 | 55.22486 | 10.96151 | 18431 ft | 397 kts | 59° |
| 2026-05-05 13:54 | 55.23821 | 11.00361 | 17937 ft | 396 kts | 60° |
| 2026-05-05 13:55 | 55.25019 | 11.04698 | 17443 ft | 394 kts | 64° |
| 2026-05-05 13:55 | 55.26135 | 11.08989 | 16921 ft | 393 kts | 64° |
| 2026-05-05 13:55 | 55.27258 | 11.13352 | 16495 ft | 388 kts | 64° |
| 2026-05-05 13:55 | 55.28357 | 11.17643 | 16123 ft | 383 kts | 65° |
| 2026-05-05 13:56 | 55.29428 | 11.21857 | 15738 ft | 378 kts | 65° |
| 2026-05-05 13:56 | 55.30490 | 11.26032 | 15369 ft | 373 kts | 64° |
| 2026-05-05 13:56 | 55.31530 | 11.30126 | 14984 ft | 370 kts | 64° |
| 2026-05-05 13:56 | 55.32571 | 11.34273 | 14521 ft | 369 kts | 66° |
| 2026-05-05 13:57 | 55.33318 | 11.38569 | 14064 ft | 367 kts | 75° |
| 2026-05-05 13:57 | 55.33950 | 11.42823 | 13633 ft | 365 kts | 74° |
| 2026-05-05 13:57 | 55.34586 | 11.47117 | 13188 ft | 363 kts | 74° |
| 2026-05-05 13:57 | 55.35216 | 11.51407 | 12728 ft | 361 kts | 74° |
| 2026-05-05 13:58 | 55.35837 | 11.55647 | 12287 ft | 358 kts | 74° |
| 2026-05-05 13:58 | 55.36449 | 11.59853 | 11843 ft | 356 kts | 74° |
| 2026-05-05 13:58 | 55.37058 | 11.64051 | 11383 ft | 354 kts | 74° |
| 2026-05-05 13:58 | 55.37663 | 11.68231 | 10929 ft | 351 kts | 75° |
| 2026-05-05 13:59 | 55.38844 | 11.76469 | 10029 ft | 346 kts | 75° |
| 2026-05-05 13:59 | 55.39445 | 11.80556 | 9577 ft | 343 kts | 72° |
| 2026-05-05 14:00 | 55.40899 | 11.88475 | 8715 ft | 336 kts | 70° |
| 2026-05-05 14:00 | 55.41387 | 11.91049 | 8427 ft | 334 kts | 70° |
| 2026-05-05 14:00 | 55.42358 | 11.96189 | 7843 ft | 329 kts | 70° |
| 2026-05-05 14:00 | 55.43058 | 11.99947 | 7399 ft | 325 kts | 71° |
| 2026-05-05 14:01 | 55.43728 | 12.03723 | 6965 ft | 322 kts | 70° |
| 2026-05-05 14:01 | 55.44418 | 12.07448 | 6497 ft | 320 kts | 70° |
| 2026-05-05 14:01 | 55.45105 | 12.11127 | 5987 ft | 313 kts | 70° |
| 2026-05-05 14:01 | 55.45775 | 12.14709 | 5479 ft | 298 kts | 70° |
| 2026-05-05 14:02 | 55.46401 | 12.18077 | 4980 ft | 284 kts | 70° |
| 2026-05-05 14:02 | 55.46992 | 12.21285 | 4470 ft | 272 kts | 70° |
| 2026-05-05 14:02 | 55.47559 | 12.24403 | 4001 ft | 260 kts | 70° |
| 2026-05-05 14:02 | 55.48094 | 12.27359 | 3595 ft | 248 kts | 70° |
| 2026-05-05 14:03 | 55.48601 | 12.30184 | 3189 ft | 239 kts | 70° |
| 2026-05-05 14:03 | 55.49087 | 12.32908 | 2780 ft | 232 kts | 70° |
| 2026-05-05 14:03 | 55.49562 | 12.35589 | 2371 ft | 227 kts | 70° |
| 2026-05-05 14:03 | 55.50021 | 12.38192 | 2060 ft | 214 kts | 70° |
| 2026-05-05 14:04 | 55.50431 | 12.40590 | 1788 ft | 195 kts | 70° |
| 2026-05-05 14:04 | 55.50808 | 12.42828 | 1633 ft | 185 kts | 70° |
| 2026-05-05 14:04 | 55.51152 | 12.44898 | 1547 ft | 166 kts | 68° |
| 2026-05-05 14:04 | 55.51595 | 12.46635 | 1484 ft | 150 kts | 57° |
| 2026-05-05 14:05 | 55.52122 | 12.48231 | 1417 ft | 148 kts | 54° |
| 2026-05-05 14:05 | 55.52701 | 12.49714 | 1347 ft | 146 kts | 49° |
| 2026-05-05 14:05 | 55.53368 | 12.51068 | 1320 ft | 145 kts | 44° |
| 2026-05-05 14:05 | 55.54072 | 12.52328 | 1282 ft | 141 kts | 40° |
| 2026-05-05 14:06 | 55.54781 | 12.53486 | 1193 ft | 135 kts | 38° |
| 2026-05-05 14:06 | 55.55452 | 12.54529 | 991 ft | 125 kts | 38° |
| 2026-05-05 14:06 | 55.56112 | 12.55544 | 837 ft | 124 kts | 38° |
| 2026-05-05 14:06 | 55.56759 | 12.56541 | 682 ft | 124 kts | 39° |
| 2026-05-05 14:07 | 55.57416 | 12.57551 | 510 ft | 124 kts | 38° |
| 2026-05-05 14:07 | 55.58062 | 12.58551 | 346 ft | 124 kts | 38° |
| 2026-05-05 14:07 | 55.58711 | 12.59541 | 170 ft | 123 kts | 38° |
| 2026-05-05 14:07 | 55.59347 | 12.60546 | 31 ft | 122 kts | 39° |
| 2026-05-05 14:08 | 55.59919 | 12.61432 | 18 ft | 92 kts | 40° |
| 2026-05-05 14:08 | 55.60338 | 12.62082 | 20 ft | 69 kts | 40° |
| 2026-05-05 14:08 | 55.60667 | 12.62594 | 21 ft | 53 kts | 40° |
| 2026-05-05 14:08 | 55.60934 | 12.63007 | 22 ft | 48 kts | 41° |
| 2026-05-05 14:09 | 55.61174 | 12.63371 | 23 ft | 43 kts | 37° |
| 2026-05-05 14:09 | 55.61388 | 12.63707 | 23 ft | 38 kts | 40° |
| 2026-05-05 14:09 | 55.61558 | 12.63973 | 22 ft | 26 kts | 41° |
| 2026-05-05 14:09 | 55.61686 | 12.64087 | 22 ft | 19 kts | 356° |
| 2026-05-05 14:10 | 55.61816 | 12.64072 | 22 ft | 18 kts | 356° |
| 2026-05-05 14:10 | 55.61934 | 12.64123 | 22 ft | 17 kts | 25° |
| 2026-05-05 14:10 | 55.62044 | 12.64216 | 22 ft | 17 kts | 25° |
| 2026-05-05 14:10 | 55.62155 | 12.64308 | 21 ft | 17 kts | 24° |
| 2026-05-05 14:11 | 55.62267 | 12.64391 | 21 ft | 17 kts | 14° |
| 2026-05-05 14:11 | 55.62384 | 12.64447 | 21 ft | 17 kts | 14° |
| 2026-05-05 14:11 | 55.62496 | 12.64466 | 21 ft | 15 kts | 323° |
| 2026-05-05 14:11 | 55.62558 | 12.64311 | 21 ft | 15 kts | 303° |
| 2026-05-05 14:12 | 55.62617 | 12.64272 | 21 ft | 10 kts | 30° |
| 2026-05-05 14:12 | 55.62678 | 12.64329 | 21 ft | 7 kts | 55° |
| 2026-05-05 14:12 | 55.62676 | 12.64402 | 21 ft | 5 kts | 101° |
| 2026-05-05 14:12 | 55.62672 | 12.64429 | 21 ft | 0 kts | 101° |